Time;durP1;ratioP1;P1;durP2;ratioP2;P2;SDS_P1;SDS_P2;PMS_P1;PMS_P2;Temp;Humidity;BMP_temperature;BMP_pressure;BME280_temperature;BME280_humidity;BME280_pressure;Samples;Min_cycle;Max_cycle;Signal;HPM_P1;HPM_P2
2023/07/05 00:00:15;;;;;;;5.67;2.77;;;;;;;18.06;55.60;100797.16;4951252;28;100723;-50
2023/07/05 00:02:40;;;;;;;2.47;2.27;;;;;;;18.07;55.64;100797.88;4953293;28;97298;-50
2023/07/05 00:05:07;;;;;;;3.40;2.37;;;;;;;18.06;55.76;100791.59;4953904;28;117272;-50
2023/07/05 00:07:32;;;;;;;5.23;2.43;;;;;;;18.09;55.79;100789.72;4951503;28;96937;-49
2023/07/05 00:09:58;;;;;;;3.47;2.50;;;;;;;18.09;55.99;100786.94;4956188;28;96844;-49
2023/07/05 00:12:23;;;;;;;3.43;2.80;;;;;;;18.09;55.87;100784.16;4952943;28;97448;-50
2023/07/05 00:14:48;;;;;;;3.20;2.43;;;;;;;18.09;56.09;100776.56;4952568;28;104945;-50
2023/07/05 00:17:14;;;;;;;3.13;2.50;;;;;;;18.05;56.18;100780.97;4956086;28;97035;-49
2023/07/05 00:19:39;;;;;;;3.67;2.73;;;;;;;18.04;56.17;100788.59;4954088;28;97326;-50
2023/07/05 00:22:04;;;;;;;3.30;2.70;;;;;;;18.03;56.26;100775.19;4957680;28;97568;-50
2023/07/05 00:24:30;;;;;;;3.20;2.90;;;;;;;18.03;56.44;100778.75;4953906;28;99852;-50
2023/07/05 00:26:55;;;;;;;2.33;2.10;;;;;;;18.05;56.65;100783.75;4953985;28;103686;-50
2023/07/05 00:29:20;;;;;;;2.93;2.40;;;;;;;18.05;56.58;100776.16;4954420;28;102727;-50
2023/07/05 00:31:46;;;;;;;6.50;2.70;;;;;;;18.07;56.44;100767.25;4952092;28;100061;-50
2023/07/05 00:34:11;;;;;;;3.97;2.50;;;;;;;18.07;56.45;100761.69;4951285;28;97442;-50
2023/07/05 00:36:36;;;;;;;3.90;2.40;;;;;;;18.07;56.59;100754.09;4951096;28;104589;-50
2023/07/05 00:39:02;;;;;;;2.87;2.67;;;;;;;18.07;56.51;100742.97;4954707;28;106648;-50
2023/07/05 00:41:27;;;;;;;4.30;2.80;;;;;;;18.06;56.70;100743.50;4952073;28;97800;-50
2023/07/05 00:43:53;;;;;;;2.80;2.60;;;;;;;18.04;56.71;100732.16;4938830;28;111462;-50
2023/07/05 00:46:25;;;;;;;2.80;2.37;;;;;;;18.02;57.23;100724.34;4953077;28;96991;-50
2023/07/05 00:48:55;;;;;;;3.80;2.30;;;;;;;18.00;57.08;100726.19;4952976;28;97017;-50
2023/07/05 00:51:42;;;;;;;4.77;3.20;;;;;;;18.00;58.29;100712.28;4953349;28;97527;-50
2023/07/05 00:54:08;;;;;;;3.57;2.80;;;;;;;17.99;57.01;100714.31;4950830;28;101494;-50
2023/07/05 00:56:43;;;;;;;4.00;2.67;;;;;;;17.98;57.54;100712.78;4951380;28;97332;-49
2023/07/05 00:59:12;;;;;;;3.23;2.80;;;;;;;17.96;57.27;100710.56;4956156;28;97570;-50
2023/07/05 01:01:38;;;;;;;3.00;2.40;;;;;;;17.95;57.17;100703.47;4953475;28;97333;-50
2023/07/05 01:04:04;;;;;;;4.57;3.03;;;;;;;17.94;57.26;100704.03;4953656;28;97616;-50
2023/07/05 01:06:30;;;;;;;3.00;2.80;;;;;;;17.92;57.37;100698.25;4951405;28;97266;-49
2023/07/05 01:08:56;;;;;;;5.30;2.50;;;;;;;17.87;57.62;100690.78;4950898;28;97250;-50
2023/07/05 01:11:32;;;;;;;2.80;2.60;;;;;;;17.85;58.34;100683.00;4950976;28;97099;-50
2023/07/05 01:14:04;;;;;;;3.40;3.03;;;;;;;17.85;58.00;100666.28;4951777;28;97487;-50
2023/07/05 01:16:29;;;;;;;3.03;2.73;;;;;;;17.86;57.71;100678.19;4956647;28;97152;-50
2023/07/05 01:19:18;;;;;;;3.73;2.90;;;;;;;17.87;58.45;100668.53;4954113;28;96983;-50
2023/07/05 01:21:53;;;;;;;3.20;2.90;;;;;;;17.88;58.26;100664.47;4952307;28;97479;-50
2023/07/05 01:24:37;;;;;;;5.70;2.73;;;;;;;17.88;59.13;100668.00;4954072;28;97561;-50
2023/07/05 01:27:29;;;;;;;5.60;3.10;;;;;;;17.89;58.80;100671.50;4950461;28;97189;-49
2023/07/05 01:30:08;;;;;;;3.07;2.87;;;;;;;17.89;58.71;100669.47;4954271;28;97266;-49
2023/07/05 01:32:42;;;;;;;3.57;2.60;;;;;;;17.91;58.40;100657.78;4951079;28;98173;-50
2023/07/05 01:35:16;;;;;;;7.90;2.97;;;;;;;17.86;58.51;100628.81;4954014;28;97083;-50
2023/07/05 01:37:43;;;;;;;4.87;2.57;;;;;;;17.84;58.12;100614.69;4952521;28;96752;-50
2023/07/05 01:40:34;;;;;;;6.37;3.40;;;;;;;17.78;59.70;100589.03;4953918;28;97047;-50
2023/07/05 01:43:04;;;;;;;3.17;2.97;;;;;;;17.78;58.29;100589.03;4950238;28;98188;-50
2023/07/05 01:45:50;;;;;;;3.80;2.77;;;;;;;17.77;58.83;100575.66;4952840;28;97366;-50
2023/07/05 01:48:34;;;;;;;3.17;2.97;;;;;;;17.75;58.98;100573.44;4951506;28;97158;-50
2023/07/05 01:51:12;;;;;;;3.00;2.70;;;;;;;17.73;59.79;100559.31;4953200;28;97252;-50
2023/07/05 01:53:57;;;;;;;3.47;2.73;;;;;;;17.70;59.70;100549.28;4952679;28;97829;-50
2023/07/05 01:56:28;;;;;;;3.60;3.03;;;;;;;17.70;59.06;100540.19;4949131;28;97152;-50
2023/07/05 01:58:57;;;;;;;3.33;3.03;;;;;;;17.70;58.77;100532.56;4951801;28;96983;-50
2023/07/05 02:01:24;;;;;;;4.73;3.30;;;;;;;17.72;58.75;100524.44;4953085;28;97351;-50
2023/07/05 02:03:52;;;;;;;4.37;2.80;;;;;;;17.73;59.06;100530.75;4949442;28;97222;-50
2023/07/05 02:06:19;;;;;;;3.57;3.20;;;;;;;17.73;59.24;100523.16;4951137;28;98591;-50
2023/07/05 02:08:49;;;;;;;3.90;3.27;;;;;;;17.77;59.37;100509.63;4952527;28;96715;-50
2023/07/05 02:11:15;;;;;;;4.27;3.03;;;;;;;17.78;59.06;100502.00;4949577;28;97027;-50
2023/07/05 02:13:41;;;;;;;3.20;2.90;;;;;;;17.78;59.10;100511.13;4950996;28;97273;-50
2023/07/05 02:16:07;;;;;;;3.40;3.10;;;;;;;17.82;59.26;100510.78;4953368;28;97721;-50
2023/07/05 02:18:32;;;;;;;5.37;3.37;;;;;;;17.83;59.11;100513.00;4951812;28;97235;-50
2023/07/05 02:20:57;;;;;;;3.97;3.10;;;;;;;17.86;59.11;100500.03;4952015;28;97108;-50
2023/07/05 02:23:23;;;;;;;7.60;3.20;;;;;;;17.84;59.09;100510.97;4953238;28;100859;-50
2023/07/05 02:25:51;;;;;;;4.50;3.00;;;;;;;17.83;59.32;100468.47;4935788;28;97093;-50
2023/07/05 02:28:17;;;;;;;3.50;2.73;;;;;;;17.83;59.40;100478.84;4951265;28;96800;-50
2023/07/05 02:30:43;;;;;;;4.53;3.10;;;;;;;17.86;59.23;100469.44;4951386;28;97161;-50
2023/07/05 02:33:08;;;;;;;3.57;3.27;;;;;;;17.87;59.31;100460.53;4952362;28;97999;-50
2023/07/05 02:35:35;;;;;;;3.93;3.40;;;;;;;17.91;59.23;100463.69;4954287;28;97114;-50
2023/07/05 02:38:01;;;;;;;4.60;3.27;;;;;;;17.91;59.28;100452.56;4953408;28;97168;-50
2023/07/05 02:40:26;;;;;;;3.80;3.07;;;;;;;17.94;59.15;100445.91;4954078;28;97124;-50
2023/07/05 02:42:51;;;;;;;3.17;2.73;;;;;;;17.98;59.17;100445.56;4953327;28;97578;-50
2023/07/05 02:45:17;;;;;;;5.33;3.13;;;;;;;17.98;59.10;100426.81;4954709;28;111314;-50
2023/07/05 02:47:42;;;;;;;6.20;3.17;;;;;;;17.99;59.17;100433.13;4949083;28;103618;-50
2023/07/05 02:50:08;;;;;;;5.73;3.27;;;;;;;18.00;59.10;100433.88;4950899;28;105492;-50
2023/07/05 02:52:34;;;;;;;4.90;3.07;;;;;;;18.02;59.24;100445.94;4950836;28;98017;-50
2023/07/05 02:54:59;;;;;;;9.97;3.10;;;;;;;18.04;59.11;100434.28;4950152;28;97610;-50
2023/07/05 02:57:24;;;;;;;4.43;3.50;;;;;;;18.06;59.24;100428.91;4950272;28;97445;-50
2023/07/05 02:59:50;;;;;;;3.83;3.17;;;;;;;18.05;59.30;100419.03;4937477;28;97832;-50
2023/07/05 03:02:15;;;;;;;3.83;3.53;;;;;;;18.02;59.58;100404.19;4949218;28;96982;-50
2023/07/05 03:04:42;;;;;;;3.93;2.83;;;;;;;18.03;59.38;100407.72;4949097;28;107227;-50
2023/07/05 03:07:08;;;;;;;4.43;3.40;;;;;;;18.03;59.51;100402.16;4947988;28;97502;-50
2023/07/05 03:09:33;;;;;;;5.10;3.93;;;;;;;18.03;59.63;100410.50;4951682;28;97360;-50
2023/07/05 03:11:58;;;;;;;3.70;3.37;;;;;;;18.02;59.56;100406.25;4951568;28;97448;-50
2023/07/05 03:14:24;;;;;;;4.60;3.50;;;;;;;18.06;59.49;100403.84;4954027;28;105188;-50
2023/07/05 03:16:49;;;;;;;6.47;3.27;;;;;;;18.07;59.52;100392.16;4952340;28;102545;-50
2023/07/05 03:19:14;;;;;;;3.17;2.97;;;;;;;18.11;59.53;100397.38;4953718;28;96787;-51
2023/07/05 03:21:40;;;;;;;3.37;3.07;;;;;;;18.12;59.55;100393.28;4953980;28;96890;-50
2023/07/05 03:24:06;;;;;;;3.27;2.67;;;;;;;18.13;59.53;100392.00;4952611;28;96962;-50
2023/07/05 03:26:31;;;;;;;3.87;3.47;;;;;;;18.11;59.67;100386.25;4954238;28;97295;-50
2023/07/05 03:28:56;;;;;;;9.77;3.90;;;;;;;18.12;59.65;100377.31;4953993;28;96903;-50
2023/07/05 03:31:22;;;;;;;3.80;3.40;;;;;;;18.13;59.59;100375.28;4954326;28;107514;-50
2023/07/05 03:33:47;;;;;;;5.47;3.80;;;;;;;18.11;59.65;100377.88;4953490;28;96997;-50
2023/07/05 03:36:17;;;;;;;4.43;3.63;;;;;;;18.08;59.75;100371.38;4953120;28;97311;-50
2023/07/05 03:38:43;;;;;;;5.17;3.57;;;;;;;18.11;59.64;100380.66;4951755;28;97310;-50
2023/07/05 03:41:12;;;;;;;5.27;3.20;;;;;;;18.10;59.72;100391.06;4954708;28;97335;-50
2023/07/05 03:43:38;;;;;;;3.67;3.37;;;;;;;18.13;59.75;100380.84;4952501;28;100497;-50
2023/07/05 03:46:05;;;;;;;4.27;3.20;;;;;;;18.13;59.61;100380.84;4954026;28;97406;-50
2023/07/05 03:48:35;;;;;;;4.00;3.67;;;;;;;18.12;59.78;100387.72;4942987;28;97463;-50
2023/07/05 03:51:00;;;;;;;3.70;3.40;;;;;;;18.14;59.76;100383.09;4950892;28;97344;-50
2023/07/05 03:53:25;;;;;;;4.60;3.40;;;;;;;18.18;59.67;100375.13;4940519;28;97561;-50
2023/07/05 03:55:51;;;;;;;5.10;3.30;;;;;;;18.21;59.65;100379.59;4953400;28;97049;-50
2023/07/05 03:58:17;;;;;;;5.10;3.60;;;;;;;18.24;59.79;100381.25;4949200;28;96988;-50
2023/07/05 04:00:42;;;;;;;6.57;3.70;;;;;;;18.24;59.64;100377.75;4953478;28;97589;-50
2023/07/05 04:03:08;;;;;;;3.57;3.27;;;;;;;18.26;59.44;100383.50;4952566;28;97227;-50
2023/07/05 04:05:34;;;;;;;3.77;3.43;;;;;;;18.29;59.60;100374.03;4957003;28;97469;-50
2023/07/05 04:07:59;;;;;;;3.57;3.23;;;;;;;18.29;59.74;100383.13;4953251;28;97564;-51
2023/07/05 04:10:25;;;;;;;5.30;3.57;;;;;;;18.29;59.69;100387.94;4953747;28;97241;-51
2023/07/05 04:12:50;;;;;;;5.03;3.87;;;;;;;18.30;59.79;100397.81;4952524;28;97063;-50
2023/07/05 04:15:16;;;;;;;4.80;3.73;;;;;;;18.28;60.01;100408.75;4956503;28;97586;-50
2023/07/05 04:17:41;;;;;;;5.03;4.23;;;;;;;18.25;59.84;100395.94;4953635;28;97497;-50
2023/07/05 04:20:07;;;;;;;7.03;4.07;;;;;;;18.23;60.24;100392.94;4951998;28;103402;-49
2023/07/05 04:22:35;;;;;;;5.47;4.00;;;;;;;18.22;60.28;100386.63;4952237;28;97328;-49
2023/07/05 04:25:00;;;;;;;7.87;4.17;;;;;;;18.21;60.38;100401.13;4951091;28;97451;-48
2023/07/05 04:27:26;;;;;;;4.83;3.77;;;;;;;18.17;60.47;100409.09;4950863;28;97352;-48
2023/07/05 04:29:51;;;;;;;4.00;3.63;;;;;;;18.20;60.35;100403.16;4954248;28;97865;-48
2023/07/05 04:32:16;;;;;;;6.57;4.27;;;;;;;18.18;60.33;100386.25;4951749;28;97348;-48
2023/07/05 04:34:42;;;;;;;4.60;3.77;;;;;;;18.13;60.70;100389.94;4952142;28;102516;-48
2023/07/05 04:37:07;;;;;;;5.30;3.60;;;;;;;18.15;60.54;100381.06;4953904;28;97101;-48
2023/07/05 04:39:33;;;;;;;3.90;3.60;;;;;;;18.16;60.61;100371.38;4951265;28;97387;-48
2023/07/05 04:41:58;;;;;;;4.50;4.10;;;;;;;18.16;60.64;100368.59;4954326;28;97703;-48
2023/07/05 04:44:23;;;;;;;5.17;4.23;;;;;;;18.12;60.88;100349.47;4953669;28;97125;-49
2023/07/05 04:46:49;;;;;;;4.67;3.73;;;;;;;18.13;60.71;100333.53;4954462;28;97720;-48
2023/07/05 04:49:14;;;;;;;4.23;3.90;;;;;;;18.14;60.85;100323.88;4954006;28;97798;-48
2023/07/05 04:51:39;;;;;;;4.27;3.70;;;;;;;18.14;60.91;100327.41;4953340;28;104364;-48
2023/07/05 04:54:05;;;;;;;4.93;4.30;;;;;;;18.15;60.87;100314.22;4953206;28;96940;-47
2023/07/05 04:56:30;;;;;;;5.07;3.97;;;;;;;18.16;61.06;100310.13;4950887;28;96990;-49
2023/07/05 04:58:56;;;;;;;5.23;3.80;;;;;;;18.15;60.93;100306.59;4949901;28;96931;-48
2023/07/05 05:01:22;;;;;;;7.43;4.90;;;;;;;18.17;61.14;100306.06;4950702;28;97179;-48
2023/07/05 05:03:47;;;;;;;4.93;4.40;;;;;;;18.17;60.82;100301.25;4952293;28;97139;-48
2023/07/05 05:06:12;;;;;;;6.83;4.30;;;;;;;18.18;61.16;100304.75;4953775;28;97004;-48
2023/07/05 05:08:38;;;;;;;6.53;4.10;;;;;;;18.18;61.14;100302.72;4952399;28;97823;-48
2023/07/05 05:11:04;;;;;;;5.10;4.00;;;;;;;18.18;61.27;100293.63;4952422;28;97489;-49
2023/07/05 05:13:32;;;;;;;9.23;4.47;;;;;;;18.18;61.40;100293.63;4950633;28;96881;-48
2023/07/05 05:15:58;;;;;;;4.60;4.20;;;;;;;18.19;61.21;100297.91;4956241;28;96978;-49
2023/07/05 05:18:24;;;;;;;5.43;4.90;;;;;;;18.20;61.28;100300.13;4951658;28;97376;-48
2023/07/05 05:20:50;;;;;;;5.90;4.80;;;;;;;18.21;61.21;100293.25;4952317;28;96810;-48
2023/07/05 05:23:15;;;;;;;6.17;4.57;;;;;;;18.22;61.39;100297.53;4934172;28;97399;-49
2023/07/05 05:25:44;;;;;;;4.57;4.03;;;;;;;18.24;61.38;100300.50;4952400;28;97398;-48
2023/07/05 05:28:11;;;;;;;7.13;4.47;;;;;;;18.26;61.37;100281.19;4951477;28;98142;-48
2023/07/05 05:30:37;;;;;;;5.40;4.90;;;;;;;18.28;61.54;100283.44;4951178;28;96770;-48
2023/07/05 05:33:03;;;;;;;6.10;5.00;;;;;;;18.28;61.46;100280.66;4951191;28;96839;-49
2023/07/05 05:35:30;;;;;;;5.97;4.30;;;;;;;18.28;61.71;100289.72;4954552;28;98182;-49
2023/07/05 05:37:55;;;;;;;6.23;4.40;;;;;;;18.29;61.52;100299.59;4954860;28;97084;-49
2023/07/05 05:40:21;;;;;;;5.17;4.40;;;;;;;18.27;61.73;100298.66;4953098;28;97123;-48
2023/07/05 05:42:47;;;;;;;5.40;4.90;;;;;;;18.27;61.59;100316.09;4954381;28;97561;-48
2023/07/05 05:45:12;;;;;;;4.80;4.40;;;;;;;18.28;61.59;100339.13;4952861;28;97437;-48
2023/07/05 05:47:37;;;;;;;7.23;4.57;;;;;;;18.27;61.78;100332.06;4952101;28;97765;-48
2023/07/05 05:50:03;;;;;;;5.57;4.87;;;;;;;18.25;61.99;100317.94;4954008;28;97684;-48
2023/07/05 05:52:28;;;;;;;6.83;4.90;;;;;;;18.23;61.88;100320.56;4951525;28;97568;-48
2023/07/05 05:54:54;;;;;;;9.63;4.67;;;;;;;18.19;61.95;100317.38;4952469;28;97098;-48
2023/07/05 05:57:19;;;;;;;5.83;5.00;;;;;;;18.18;62.01;100316.63;4952644;28;97568;-48
2023/07/05 05:59:45;;;;;;;5.83;4.57;;;;;;;18.18;62.07;100307.53;4951951;28;97239;-48
2023/07/05 06:02:10;;;;;;;5.27;4.77;;;;;;;18.16;62.15;100305.31;4952417;28;97164;-48
2023/07/05 06:04:36;;;;;;;6.10;4.60;;;;;;;18.17;62.23;100294.94;4954421;28;97543;-49
2023/07/05 06:07:01;;;;;;;5.07;4.53;;;;;;;18.18;62.23;100291.56;4952382;28;101037;-48
2023/07/05 06:09:26;;;;;;;7.00;4.83;;;;;;;18.18;62.40;100254.63;4950989;28;97124;-48
2023/07/05 06:11:52;;;;;;;5.30;4.80;;;;;;;18.21;62.19;100298.09;4954156;28;96800;-47
2023/07/05 06:14:17;;;;;;;8.33;4.40;;;;;;;18.20;62.40;100257.59;4953627;28;98934;-48
2023/07/05 06:16:42;;;;;;;7.13;4.70;;;;;;;18.22;62.52;100213.22;4952762;28;97183;-48
2023/07/05 06:19:08;;;;;;;6.77;4.53;;;;;;;18.21;62.71;100186.69;4954394;28;96875;-48
2023/07/05 06:21:33;;;;;;;6.50;4.80;;;;;;;18.21;62.58;100218.09;4951120;28;103631;-48
2023/07/05 06:23:58;;;;;;;8.17;4.70;;;;;;;18.24;62.80;100252.44;4952590;28;97497;-48
2023/07/05 06:26:24;;;;;;;5.50;4.33;;;;;;;18.30;62.65;100292.72;4947933;28;99966;-48
2023/07/05 06:28:49;;;;;;;7.00;5.30;;;;;;;18.35;62.85;100297.34;4952126;28;97518;-48
2023/07/05 06:31:16;;;;;;;6.70;5.00;;;;;;;18.46;62.87;100276.78;4953132;28;96800;-48
2023/07/05 06:33:41;;;;;;;4.30;3.90;;;;;;;18.52;62.84;100278.09;4953256;28;97064;-48
2023/07/05 06:36:08;;;;;;;4.90;4.40;;;;;;;18.60;63.06;100275.31;4953112;28;97705;-48
2023/07/05 06:38:34;;;;;;;5.90;4.50;;;;;;;18.64;62.64;100265.28;4950860;28;96701;-48
2023/07/05 06:40:59;;;;;;;5.70;5.07;;;;;;;18.68;62.84;100270.47;4950104;28;97006;-48
2023/07/05 06:43:25;;;;;;;8.60;4.30;;;;;;;18.69;63.01;100274.75;4952757;28;97218;-49
2023/07/05 06:45:53;;;;;;;6.00;4.93;;;;;;;18.71;62.78;100258.22;4947852;28;96789;-49
2023/07/05 06:48:20;;;;;;;5.20;4.70;;;;;;;18.71;62.83;100261.00;4951668;28;97906;-49
2023/07/05 06:50:54;;;;;;;8.20;4.57;;;;;;;18.75;63.29;100271.78;4953907;28;96832;-48
2023/07/05 06:53:20;;;;;;;5.23;4.57;;;;;;;18.76;62.87;100281.63;4949599;28;98481;-48
2023/07/05 06:55:49;;;;;;;5.83;4.97;;;;;;;18.79;63.47;100286.81;4949062;28;97432;-48
2023/07/05 06:58:15;;;;;;;4.60;4.03;;;;;;;18.81;63.18;100283.47;4950295;28;97806;-49
2023/07/05 07:00:41;;;;;;;5.67;4.40;;;;;;;18.82;63.20;100277.34;4950768;28;96907;-49
2023/07/05 07:03:06;;;;;;;5.20;4.40;;;;;;;18.87;63.26;100275.69;4951273;28;96871;-49
2023/07/05 07:05:31;;;;;;;7.13;4.37;;;;;;;18.91;63.51;100282.38;4951122;28;97480;-49
2023/07/05 07:07:57;;;;;;;4.50;3.90;;;;;;;18.94;63.52;100284.03;4948593;28;97813;-48
2023/07/05 07:10:22;;;;;;;4.13;3.73;;;;;;;19.00;63.47;100278.97;4950955;28;97175;-48
2023/07/05 07:12:48;;;;;;;4.50;3.93;;;;;;;19.07;63.59;100277.50;4951687;28;97368;-48
2023/07/05 07:15:13;;;;;;;6.57;3.90;;;;;;;19.11;63.42;100284.19;4951552;28;115623;-50
2023/07/05 07:17:38;;;;;;;4.73;4.10;;;;;;;19.13;63.53;100295.50;4950811;28;97814;-48
2023/07/05 07:20:05;;;;;;;2.83;2.63;;;;;;;19.17;63.59;100298.69;4951430;28;97325;-48
2023/07/05 07:22:30;;;;;;;3.40;3.10;;;;;;;19.22;63.61;100306.09;4950293;28;96771;-49
2023/07/05 07:24:55;;;;;;;4.40;3.60;;;;;;;19.23;63.68;100318.75;4950965;28;97309;-49
2023/07/05 07:27:21;;;;;;;3.53;3.23;;;;;;;19.28;63.63;100322.66;4952269;28;110936;-48
2023/07/05 07:29:46;;;;;;;3.67;3.37;;;;;;;19.31;63.79;100332.66;4952160;28;97123;-49
2023/07/05 07:32:11;;;;;;;3.47;3.17;;;;;;;19.29;63.59;100330.44;4949038;28;97027;-48
2023/07/05 07:34:37;;;;;;;5.70;3.40;;;;;;;19.28;63.71;100339.38;4950572;28;98330;-48
2023/07/05 07:37:03;;;;;;;3.10;2.90;;;;;;;19.29;63.80;100338.81;4952755;28;97094;-49
2023/07/05 07:39:29;;;;;;;4.23;3.47;;;;;;;19.24;63.82;100336.25;4951473;28;96930;-48
2023/07/05 07:41:55;;;;;;;2.33;2.13;;;;;;;19.19;63.67;100340.69;4951959;28;96841;-50
2023/07/05 07:44:20;;;;;;;3.10;2.17;;;;;;;19.18;63.75;100349.59;4950641;28;97374;-49
2023/07/05 07:46:46;;;;;;;2.57;2.37;;;;;;;19.16;63.63;100355.75;4949177;28;96969;-49
2023/07/05 07:49:12;;;;;;;2.10;2.00;;;;;;;19.18;63.31;100361.50;4952386;28;97099;-49
2023/07/05 07:51:39;;;;;;;2.60;2.03;;;;;;;19.20;63.36;100367.28;4950571;28;96817;-49
2023/07/05 07:54:08;;;;;;;2.63;2.10;;;;;;;19.19;63.07;100367.84;4949623;28;96975;-49
2023/07/05 07:56:34;;;;;;;2.07;1.97;;;;;;;19.17;62.92;100357.25;4951311;28;97121;-49
2023/07/05 07:59:01;;;;;;;1.80;1.70;;;;;;;19.12;62.53;100349.81;4956348;28;100446;-49
2023/07/05 08:01:27;;;;;;;2.20;2.00;;;;;;;19.11;62.14;100358.75;4953222;28;97645;-48
2023/07/05 08:03:55;;;;;;;1.77;1.60;;;;;;;19.15;61.97;100359.09;4954372;28;97800;-49
2023/07/05 08:06:28;;;;;;;1.80;1.70;;;;;;;19.21;61.87;100360.41;4955293;28;97424;-48
2023/07/05 08:08:53;;;;;;;1.87;1.67;;;;;;;19.30;62.13;100368.22;4954619;28;96883;-49
2023/07/05 08:11:19;;;;;;;1.90;1.80;;;;;;;19.38;61.62;100374.53;4954494;28;97374;-49
2023/07/05 08:13:45;;;;;;;2.00;1.80;;;;;;;19.42;61.68;100383.28;4955510;28;97642;-49
2023/07/05 08:16:10;;;;;;;1.50;1.40;;;;;;;19.47;61.41;100378.06;4955268;28;98196;-53
2023/07/05 08:18:35;;;;;;;2.03;1.93;;;;;;;19.49;61.24;100381.03;4953694;28;104623;-49
2023/07/05 08:21:02;;;;;;;2.50;1.73;;;;;;;19.51;61.25;100376.38;4953426;28;96996;-49
2023/07/05 08:23:27;;;;;;;1.50;1.40;;;;;;;19.58;61.38;100375.63;4954619;28;97039;-49
2023/07/05 08:25:56;;;;;;;2.17;1.60;;;;;;;19.67;60.97;100388.25;4950138;28;100492;-48
2023/07/05 08:28:26;;;;;;;2.93;1.87;;;;;;;19.69;60.31;100385.63;4953544;28;102294;-49
2023/07/05 08:30:56;;;;;;;1.50;1.40;;;;;;;19.73;60.32;100395.13;4954197;28;97043;-49
2023/07/05 08:33:23;;;;;;;1.60;1.40;;;;;;;19.77;60.20;100383.56;4952210;28;97324;-49
2023/07/05 08:35:54;;;;;;;1.83;1.60;;;;;;;19.86;60.16;100388.56;4954004;28;96827;-50
2023/07/05 08:38:21;;;;;;;2.70;1.90;;;;;;;19.87;59.77;100392.84;4956258;28;97692;-49
2023/07/05 08:40:52;;;;;;;2.13;1.70;;;;;;;19.95;59.37;100401.94;4954248;28;97141;-49
2023/07/05 08:43:53;;;;;;;1.67;1.57;;;;;;;20.06;59.45;100395.94;4953757;28;97174;-49
2023/07/05 08:46:19;;;;;;;1.57;1.47;;;;;;;20.18;58.94;100400.53;4928805;28;97456;-50
2023/07/05 08:48:47;;;;;;;2.20;2.00;;;;;;;20.35;58.94;100411.13;4944825;28;97713;-48
2023/07/05 08:51:15;;;;;;;1.87;1.77;;;;;;;20.41;58.28;100396.91;4951431;28;97276;-49
2023/07/05 08:54:04;;;;;;;1.97;1.87;;;;;;;20.37;56.84;100402.91;4953324;28;97225;-50
2023/07/05 08:56:38;;;;;;;1.77;1.67;;;;;;;20.30;57.35;100400.16;4951430;28;97369;-49
2023/07/05 08:59:17;;;;;;;2.17;1.97;;;;;;;20.37;57.92;100407.75;4952596;28;97108;-50
2023/07/05 09:01:44;;;;;;;3.30;1.70;;;;;;;20.38;57.76;100421.16;4955103;28;99347;-49
2023/07/05 09:04:12;;;;;;;2.23;1.80;;;;;;;20.35;57.39;100411.13;4949204;28;97783;-49
2023/07/05 09:06:49;;;;;;;2.37;1.83;;;;;;;20.37;56.21;100411.28;4950886;28;97243;-49
2023/07/05 09:09:41;;;;;;;2.07;1.87;;;;;;;20.49;55.62;100398.34;4953722;28;97193;-49
2023/07/05 09:12:22;;;;;;;1.93;1.83;;;;;;;20.53;54.84;100401.50;4952730;28;96932;-50
2023/07/05 09:14:57;;;;;;;1.73;1.63;;;;;;;20.63;54.82;100393.25;4952586;28;97818;-50
2023/07/05 09:17:31;;;;;;;1.77;1.67;;;;;;;20.67;55.69;100410.38;4953564;28;96892;-50
2023/07/05 09:20:05;;;;;;;1.90;1.80;;;;;;;20.76;55.25;100420.94;4952755;28;97484;-50
2023/07/05 09:22:36;;;;;;;2.50;1.80;;;;;;;20.81;54.62;100412.34;4951559;28;97503;-50
2023/07/05 09:25:05;;;;;;;1.90;1.30;;;;;;;20.92;54.71;100414.66;4954984;28;97418;-50
2023/07/05 09:27:36;;;;;;;1.70;1.60;;;;;;;21.14;53.96;100399.06;4951201;28;96722;-50
2023/07/05 09:30:11;;;;;;;2.63;2.00;;;;;;;21.31;50.69;100412.34;4953277;28;97252;-50
2023/07/05 09:32:39;;;;;;;2.80;2.27;;;;;;;21.49;53.35;100422.25;4952676;28;97365;-50
2023/07/05 09:35:19;;;;;;;1.80;1.70;;;;;;;21.69;50.86;100423.91;4933210;28;98881;-49
2023/07/05 09:38:10;;;;;;;1.83;1.73;;;;;;;21.86;50.01;100423.97;4952982;28;97313;-51
2023/07/05 09:40:42;;;;;;;2.07;1.70;;;;;;;21.95;51.20;100430.97;4951548;28;97125;-50
2023/07/05 09:43:28;;;;;;;1.60;1.50;;;;;;;21.91;49.14;100433.44;4949164;28;97359;-50
2023/07/05 09:45:54;;;;;;;1.40;1.30;;;;;;;21.82;51.04;100437.59;4951517;28;97363;-51
2023/07/05 09:48:19;;;;;;;2.00;1.80;;;;;;;21.75;51.39;100421.63;4953077;28;97180;-51
2023/07/05 09:50:50;;;;;;;4.00;2.10;;;;;;;21.81;50.73;100430.53;4950002;28;97291;-50
2023/07/05 09:53:22;;;;;;;1.60;1.50;;;;;;;21.82;49.46;100417.97;4952093;28;96788;-50
2023/07/05 09:56:09;;;;;;;1.23;1.13;;;;;;;21.75;49.35;100429.28;4954457;28;97357;-50
2023/07/05 09:58:35;;;;;;;1.77;1.67;;;;;;;21.72;50.87;100436.03;4952598;28;97178;-50
2023/07/05 10:01:04;;;;;;;1.37;1.27;;;;;;;21.75;50.74;100441.22;4952398;28;97486;-51
2023/07/05 10:03:43;;;;;;;1.40;1.30;;;;;;;21.80;49.13;100434.63;4952313;28;97819;-50
2023/07/05 10:06:11;;;;;;;1.20;1.10;;;;;;;21.85;50.06;100433.69;4951537;28;100192;-50
2023/07/05 10:08:44;;;;;;;2.17;1.40;;;;;;;21.89;48.24;100442.41;4950966;28;97196;-51
2023/07/05 10:11:24;;;;;;;1.93;1.20;;;;;;;21.92;47.61;100452.47;4950019;28;96939;-50
2023/07/05 10:14:08;;;;;;;2.13;1.00;;;;;;;21.95;47.77;100448.50;4952292;28;97341;-51
2023/07/05 10:16:54;;;;;;;1.20;1.10;;;;;;;21.94;47.29;100458.22;4950521;28;97224;-50
2023/07/05 10:19:37;;;;;;;1.13;1.00;;;;;;;21.99;48.02;100457.25;4952878;28;97089;-51
2023/07/05 10:22:14;;;;;;;1.27;0.70;;;;;;;22.01;49.17;100451.81;4947677;28;97294;-51
2023/07/05 10:24:48;;;;;;;4.87;1.53;;;;;;;22.02;48.17;100461.69;4951047;28;96909;-51
2023/07/05 10:27:21;;;;;;;1.63;1.17;;;;;;;21.98;49.13;100478.16;4951777;28;98165;-50
2023/07/05 10:29:48;;;;;;;1.20;1.10;;;;;;;21.83;48.85;100461.53;4952073;28;97166;-50
2023/07/05 10:32:18;;;;;;;1.37;1.27;;;;;;;21.79;48.32;100475.16;4953705;28;97403;-50
2023/07/05 10:34:47;;;;;;;1.10;1.00;;;;;;;21.82;49.08;100471.19;4950286;28;97109;-52
2023/07/05 10:37:28;;;;;;;2.10;1.00;;;;;;;21.92;46.02;100474.88;4949890;28;97254;-50
2023/07/05 10:39:55;;;;;;;0.80;0.70;;;;;;;22.10;48.70;100501.59;4949892;28;97235;-50
2023/07/05 10:42:20;;;;;;;1.17;0.83;;;;;;;22.22;48.28;100482.94;4952612;28;97768;-51
2023/07/05 10:44:45;;;;;;;0.87;0.87;;;;;;;22.31;48.25;100475.94;4949716;28;97497;-50
2023/07/05 10:47:13;;;;;;;0.93;0.83;;;;;;;22.44;48.12;100494.47;4951466;28;98040;-50
2023/07/05 10:49:39;;;;;;;2.10;0.90;;;;;;;22.55;47.82;100491.16;4951791;28;97147;-52
2023/07/05 10:52:09;;;;;;;1.63;0.90;;;;;;;22.55;47.08;100488.34;4955158;28;97503;-52
2023/07/05 10:55:05;;;;;;;1.70;1.23;;;;;;;22.58;45.85;100487.94;4952597;28;97077;-52
2023/07/05 10:57:36;;;;;;;1.57;0.80;;;;;;;22.63;46.24;100489.03;4951590;28;99657;-51
2023/07/05 11:00:09;;;;;;;1.73;1.03;;;;;;;22.63;46.57;100503.06;4949872;28;98081;-50
2023/07/05 11:02:55;;;;;;;1.47;1.10;;;;;;;22.59;46.93;100481.03;4933053;28;96916;-51
2023/07/05 11:05:44;;;;;;;2.30;0.80;;;;;;;22.67;46.25;100476.03;4951193;28;97369;-50
2023/07/05 11:08:31;;;;;;;4.97;1.20;;;;;;;22.77;44.73;100474.06;4952791;28;98681;-51
2023/07/05 11:11:00;;;;;;;4.80;0.90;;;;;;;22.86;46.50;100495.06;4952203;28;97248;-50
2023/07/05 11:13:27;;;;;;;1.00;0.83;;;;;;;23.01;46.04;100481.56;4949369;28;97035;-51
2023/07/05 11:15:53;;;;;;;0.73;0.63;;;;;;;22.92;46.13;100487.13;4951382;28;97391;-50
2023/07/05 11:18:21;;;;;;;2.27;0.70;;;;;;;22.90;46.07;100503.81;4951472;28;98210;-50
2023/07/05 11:20:48;;;;;;;4.03;1.17;;;;;;;22.88;45.81;100498.03;4949767;28;97509;-50
2023/07/05 11:23:43;;;;;;;1.90;1.00;;;;;;;22.97;41.88;100509.31;4950678;28;97553;-50
2023/07/05 11:26:28;;;;;;;3.00;0.90;;;;;;;23.00;45.56;100510.94;4949828;28;97417;-51
2023/07/05 11:28:53;;;;;;;2.60;0.90;;;;;;;23.01;45.62;100503.28;4948508;28;97429;-50
2023/07/05 11:31:27;;;;;;;5.10;0.93;;;;;;;22.97;42.62;100505.75;4952314;28;97210;-50